Flight Track Log - Related Links

Times and Time Zones

All times are in EDT time to prevent confusion due to time zone crossing. See the LXJ537 flight status page for this flight to view local times or setup timezone preferences in your user account.

Time Position Orientation Groundspeed Altitude Reporting Facility
EDT Latitude Longitude Course Direction KTS MPH feet Rate Location/Type
Wed 10:27:54 AM 39.4500 -119.7667 131° Southeast 208 239 7,900  Level Northern Cal TRACON
Wed 10:29:00 AM 39.4008 -119.5953 110° East  Level Estimated
Wed 10:29:55 AM 39.3244 -119.6850 110° East 309 356 14,200  Level Oakland Center
Wed 10:30:56 AM 39.2494 -119.5947 137° Southeast 355 409 16,800 2,361 Climbing Oakland Center
Wed 10:31:57 AM 39.1669 -119.4919 136° Southeast 398 458 19,000 2,410 Climbing Oakland Center
Wed 10:32:58 AM 39.0769 -119.3867 138° Southeast 430 495 21,700 2,195 Climbing Oakland Center
Wed 10:33:00 AM 39.0537 -119.0556 131° Southeast  Level FlightAware Approximate
Wed 10:34:00 AM 38.9858 -119.2761 137° Southeast 447 514 23,500  Level Oakland Center
Wed 10:35:01 AM 38.8703 -119.1356 137° Southeast 475 547 26,400 2,607 Climbing Oakland Center
Wed 10:36:02 AM 38.7744 -119.0206 137° Southeast 474 545 28,800 2,262 Climbing Oakland Center
Wed 10:37:03 AM 38.6775 -118.9039 137° Southeast 479 551 31,000 1,623 Climbing Oakland Center
Wed 10:38:04 AM 38.5753 -118.7853 138° Southeast 494 568 32,100 1,328 Climbing Oakland Center
Wed 10:39:05 AM 38.4725 -118.6619 137° Southeast 507 583 33,700 1,426 Climbing Oakland Center
Wed 10:40:06 AM 38.3694 -118.5386 137° Southeast 509 586 35,000 1,180 Climbing Oakland Center
Wed 10:41:07 AM 38.2625 -118.4142 138° Southeast 518 596 36,100 1,328 Climbing Oakland Center
Wed 10:42:08 AM 38.1572 -118.2933 138° Southeast 512 589 37,700 1,574 Climbing Oakland Center
Wed 10:43:09 AM 38.0472 -118.1631 137° Southeast 512 589 39,300 1,463 Climbing Oakland Center
Wed 10:44:11 AM 37.9442 -118.0431 137° Southeast 507 583 40,700 1,317 Climbing Oakland Center
Wed 10:45:12 AM 37.8439 -117.9267 137° Southeast 497 572 42,000 1,230 Climbing Oakland Center
Wed 10:46:13 AM 37.7458 -117.8128 137° Southeast 483 556 43,200 1,279 Climbing Oakland Center
Wed 10:47:14 AM 37.6319 -117.6814 138° Southeast 464 534 44,600 885 Climbing Oakland Center
Wed 10:48:15 AM 37.5392 -117.5758 138° Southeast 454 522 45,000 197 Climbing Oakland Center
Wed 10:49:16 AM 37.4433 -117.4694 139° Southeast 459 528 45,000  Level Oakland Center
Wed 10:50:17 AM 37.3447 -117.3597 138° Southeast 474 545 45,000  Level Oakland Center
Wed 10:51:18 AM 37.2450 -117.2456 138° Southeast 487 560 45,000  Level Oakland Center
Wed 10:52:19 AM 37.1456 -117.1333 138° Southeast 484 557 45,000  Level Oakland Center
Wed 10:52:34 AM 37.1264 -117.1097 136° Southeast 485 558 45,000  Level Los Angeles Center
Wed 10:53:20 AM 37.0433 -117.0197 139° Southeast 487 560 45,000  Level Oakland Center
Wed 10:54:22 AM 36.9408 -116.9056 138° Southeast 493 567 45,000  Level Oakland Center
Wed 10:54:37 AM 36.9006 -116.8592 137° Southeast 493 567 45,000  Level Los Angeles Center
Wed 10:55:39 AM 36.8036 -116.7411 136° Southeast 489 563 45,000  Level Los Angeles Center
Wed 10:56:53 AM 36.7369 -116.5900 119° Southeast 497 572 45,000  Level Los Angeles Center
Wed 10:57:55 AM 36.6611 -116.4100 118° Southeast 492 566 45,000  Level Los Angeles Center
Wed 10:58:57 AM 36.5972 -116.2597 118° Southeast 491 565 45,000  Level Los Angeles Center
Wed 10:59:59 AM 36.5333 -116.1089 118° Southeast 494 568 45,000  Level Los Angeles Center
Wed 11:01:01 AM 36.4694 -115.9572 118° Southeast 495 570 45,000  Level Los Angeles Center
Wed 11:02:03 AM 36.3942 -115.7817 118° Southeast 492 566 45,000  Level Los Angeles Center
Wed 11:03:05 AM 36.3356 -115.6294 116° Southeast 497 572 45,000  Level Los Angeles Center
Wed 11:04:06 AM 36.2983 -115.4786 107° East 500 575 45,000  Level Los Angeles Center
Wed 11:05:08 AM 36.2506 -115.2806 107° East 500 575 45,000  Level Los Angeles Center
Wed 11:06:10 AM 36.2089 -115.1147 107° East 503 579 45,000  Level Los Angeles Center
Wed 11:07:12 AM 36.1675 -114.9500 107° East 504 580 45,000  Level Los Angeles Center
Wed 11:08:14 AM 36.1267 -114.7856 107° East 502 578 45,000  Level Los Angeles Center
Wed 11:09:16 AM 36.0853 -114.6219 107° East 499 574 45,000  Level Los Angeles Center
Wed 11:10:18 AM 36.0436 -114.4575 107° East 501 577 45,000  Level Los Angeles Center
Wed 11:11:20 AM 35.9925 -114.2617 108° East 500 575 45,000  Level Los Angeles Center
Wed 11:12:23 AM 35.9514 -114.0969 107° East 501 577 45,000  Level Los Angeles Center
Wed 11:13:25 AM 35.9081 -113.9322 108° East 504 580 45,000  Level Los Angeles Center
Wed 11:14:27 AM 35.8658 -113.7683 108° East 504 580 45,000  Level Los Angeles Center
Wed 11:15:29 AM 35.8231 -113.6047 108° East 503 579 45,000  Level Los Angeles Center
Wed 11:16:31 AM 35.7800 -113.4411 108° East 502 578 45,000  Level Los Angeles Center
Wed 11:17:33 AM 35.7294 -113.2433 107° East 504 580 45,000  Level Los Angeles Center
Wed 11:18:35 AM 35.6853 -113.0789 108° East 506 582 45,000  Level Los Angeles Center
Wed 11:19:37 AM 35.6394 -112.9128 109° East 505 581 45,000  Level Los Angeles Center
Wed 11:20:39 AM 35.5956 -112.7489 108° East 506 582 45,000  Level Los Angeles Center
Wed 11:21:42 AM 35.5514 -112.5853 108° East 507 583 45,000  Level Los Angeles Center
Wed 11:22:44 AM 35.5056 -112.4197 109° East 511 588 45,000  Level Los Angeles Center
Wed 11:23:46 AM 35.4511 -112.2242 109° East 509 586 45,000  Level Los Angeles Center
Wed 11:24:48 AM 35.4064 -112.0619 109° East 506 582 45,000  Level Los Angeles Center
Wed 11:25:50 AM 35.3606 -111.8956 109° East 504 580 45,000  Level Los Angeles Center
Wed 11:26:45 AM 35.3236 -111.7642 109° East 504 580 45,000  Level Albuquerque Center
Wed 11:27:47 AM 35.2778 -111.6014 109° East 504 580 45,000  Level Albuquerque Center
Wed 11:28:49 AM 35.2236 -111.4081 109° East 502 578 45,000  Level Albuquerque Center
Wed 11:29:51 AM 35.1767 -111.2461 109° East 504 580 45,000  Level Albuquerque Center
Wed 11:30:53 AM 35.1308 -111.0831 109° East 505 581 45,000  Level Albuquerque Center
Wed 11:31:55 AM 35.0800 -110.9058 109° East 508 585 45,000  Level Albuquerque Center
Wed 11:32:57 AM 35.0356 -110.7511 109° East 507 583 45,000  Level Albuquerque Center
Wed 11:33:59 AM 34.9828 -110.5703 110° East 507 583 45,000  Level Albuquerque Center
Wed 11:35:01 AM 34.9383 -110.4175 109° East 505 581 45,000  Level Albuquerque Center
Wed 11:36:03 AM 34.8872 -110.2414 109° East 499 574 45,000  Level Albuquerque Center
Wed 11:37:05 AM 34.8428 -110.0908 110° East 496 571 45,000  Level Albuquerque Center
Wed 11:38:07 AM 34.7886 -109.9097 110° East 505 581 45,000  Level Albuquerque Center
Wed 11:39:09 AM 34.7431 -109.7608 110° East 498 573 45,000  Level Albuquerque Center
Wed 11:40:11 AM 34.6894 -109.5831 110° East 500 575 45,000  Level Albuquerque Center
Wed 11:41:13 AM 34.6431 -109.4289 110° East 504 580 45,000  Level Albuquerque Center
Wed 11:42:15 AM 34.5892 -109.2514 110° East 505 581 45,000  Level Albuquerque Center
Wed 11:43:17 AM 34.5417 -109.0972 110° East 508 585 45,000  Level Albuquerque Center
Wed 11:44:19 AM 34.4875 -108.9167 110° East 511 588 45,000  Level Albuquerque Center
Wed 11:45:21 AM 34.4400 -108.7664 111° Southeast 507 583 45,000  Level Albuquerque Center
Wed 11:46:23 AM 34.3925 -108.6153 111° Southeast 504 580 45,000  Level Albuquerque Center
Wed 11:47:25 AM 34.3361 -108.4364 111° Southeast 504 580 45,000  Level Albuquerque Center
Wed 11:48:27 AM 34.2867 -108.2786 111° Southeast 508 585 45,000  Level Albuquerque Center
Wed 11:49:29 AM 34.2381 -108.1289 111° Southeast 508 585 45,000 -48 Level Albuquerque Center
Wed 11:50:31 AM 34.1769 -107.9422 112° Southeast 503 579 44,900  Descending Albuquerque Center
Wed 11:51:33 AM 34.1264 -107.7858 111° Southeast 500 575 45,000  Climbing Albuquerque Center
Wed 11:52:35 AM 34.0761 -107.6289 111° Southeast 501 577 44,900  Descending Albuquerque Center
Wed 11:53:37 AM 34.0261 -107.4728 111° Southeast 500 575 45,000 48 Climbing Albuquerque Center
Wed 11:54:39 AM 33.9753 -107.3156 111° Southeast 502 578 45,000 -48 Level Albuquerque Center
Wed 11:55:41 AM 33.9231 -107.1578 112° Southeast 504 580 44,900  Descending Albuquerque Center
Wed 11:56:43 AM 33.8717 -107.0008 111° Southeast 503 579 45,000 48 Climbing Albuquerque Center
Wed 11:57:45 AM 33.8092 -106.8114 112° Southeast 506 582 45,000  Level Albuquerque Center
Wed 11:58:47 AM 33.7567 -106.6547 112° Southeast 506 582 45,000  Level Albuquerque Center
Wed 11:59:49 AM 33.7039 -106.4969 112° Southeast 506 582 45,000  Level Albuquerque Center
Wed 12:00:51 PM 33.6522 -106.3394 111° Southeast 507 583 45,000 -48 Level Albuquerque Center
Wed 12:01:53 PM 33.5983 -106.1836 113° Southeast 505 581 44,900  Descending Albuquerque Center
Wed 12:02:55 PM 33.5447 -106.0278 112° Southeast 504 580 45,000  Climbing Albuquerque Center
Wed 12:03:57 PM 33.4825 -105.8414 112° Southeast 503 579 44,900  Descending Albuquerque Center
Wed 12:04:59 PM 33.4303 -105.6886 112° Southeast 499 574 45,000 48 Climbing Albuquerque Center
Wed 12:06:01 PM 33.3697 -105.5217 113° Southeast 503 579 45,000  Level Albuquerque Center
Wed 12:07:03 PM 33.3178 -105.3692 112° Southeast 499 574 45,000  Level Albuquerque Center
Wed 12:08:05 PM 33.2597 -105.2042 113° Southeast 504 580 45,000  Level Albuquerque Center
Wed 12:09:07 PM 33.2081 -105.0522 112° Southeast 499 574 45,000  Level Albuquerque Center
Wed 12:10:09 PM 33.1533 -104.8997 113° Southeast 502 578 45,000  Level Albuquerque Center
Wed 12:11:11 PM 33.0956 -104.7364 113° Southeast 500 575 45,000  Level Albuquerque Center
Wed 12:12:13 PM 33.0383 -104.5719 113° Southeast 503 579 45,000  Level Albuquerque Center
Wed 12:13:15 PM 32.9847 -104.4208 113° Southeast 500 575 45,000  Level Albuquerque Center
Wed 12:14:17 PM 32.9289 -104.2594 112° Southeast 495 570 45,000  Level Albuquerque Center
Wed 12:15:19 PM 32.8756 -104.1114 113° Southeast 490 564 45,000  Level Albuquerque Center
Wed 12:16:21 PM 32.8169 -103.9506 113° Southeast 494 568 45,000  Level Albuquerque Center
Wed 12:17:23 PM 32.7631 -103.8003 113° Southeast 496 571 45,000  Level Albuquerque Center
Wed 12:18:25 PM 32.7119 -103.6561 113° Southeast 488 562 45,000  Level Albuquerque Center
Wed 12:19:27 PM 32.6561 -103.5058 114° Southeast 495 570 45,000  Level Albuquerque Center
Wed 12:20:29 PM 32.6000 -103.3569 114° Southeast 497 572 45,000  Level Albuquerque Center
Wed 12:21:18 PM 32.5522 -103.2319 114° Southeast 495 570 45,000  Level Fort Worth Center
Wed 12:22:18 PM 32.4967 -103.0806 113° Southeast 495 570 45,000  Level Fort Worth Center
Wed 12:23:18 PM 32.4386 -102.9292 114° Southeast 495 570 45,000  Level Fort Worth Center
Wed 12:24:18 PM 32.3825 -102.7808 114° Southeast 495 570 45,000  Level Fort Worth Center
Wed 12:25:18 PM 32.3183 -102.6147 115° Southeast 501 577 45,000  Level Fort Worth Center
Wed 12:26:18 PM 32.2578 -102.4614 115° Southeast 501 577 45,000  Level Fort Worth Center
Wed 12:27:18 PM 32.2033 -102.3111 113° Southeast 501 577 45,000 -550 Level Fort Worth Center
Wed 12:28:18 PM 32.1483 -102.1658 114° Southeast 495 570 43,900 -1,300 Descending Fort Worth Center
Wed 12:29:18 PM 32.0975 -102.0211 112° Southeast 485 558 42,400 -1,500 Descending Fort Worth Center
Wed 12:30:18 PM 32.0422 -101.8761 114° Southeast 485 558 40,900 -1,550 Descending Fort Worth Center
Wed 12:31:18 PM 31.9886 -101.7389 115° Southeast 473 544 39,300 -950 Descending Fort Worth Center
Wed 12:32:18 PM 31.9347 -101.5992 114° Southeast 468 539 39,000 -150 Descending Fort Worth Center
Wed 12:33:18 PM 31.8811 -101.4525 113° Southeast 473 544 39,000  Level Fort Worth Center
Wed 12:34:18 PM 31.8228 -101.3131 116° Southeast 473 544 39,000  Level Fort Worth Center
Wed 12:35:18 PM 31.7689 -101.1689 114° Southeast 468 539 39,000  Level Fort Worth Center
Wed 12:36:18 PM 31.7103 -101.0275 116° Southeast 468 539 39,000  Level Fort Worth Center
Wed 12:37:18 PM 31.6558 -100.8886 115° Southeast 473 544 39,000  Level Fort Worth Center
Wed 12:38:18 PM 31.5992 -100.7475 115° Southeast 473 544 39,000  Level Fort Worth Center
Wed 12:39:18 PM 31.5561 -100.6361 114° Southeast 468 539 39,000  Level Fort Worth Center
Wed 12:40:18 PM 31.4992 -100.4906 115° Southeast 454 522 39,000 -450 Level Fort Worth Center
Wed 12:41:18 PM 31.4361 -100.3325 115° Southeast 465 535 38,100 -1,600 Descending Fort Worth Center
Wed 12:42:18 PM 31.3844 -100.2142 117° Southeast 460 529 35,800 -2,400 Descending Fort Worth Center
Wed 12:43:13 PM 31.3317 -100.0872 116° Southeast 465 535 33,500 -2,441 Descending Houston Center
Wed 12:44:16 PM 31.2725 -99.9486 117° Southeast 476 548 31,000 -2,177 Descending Houston Center
Wed 12:45:17 PM 31.2172 -99.8119 115° Southeast 468 539 29,000 -968 Descending Houston Center
Wed 12:46:20 PM 31.1731 -99.6789 111° Southeast 433 498 29,000  Level Houston Center
Wed 12:47:22 PM 31.1286 -99.5106 107° East 467 537 29,000 -387 Level Houston Center
Wed 12:48:24 PM 31.0861 -99.3592 108° East 483 556 28,200 -1,403 Descending Houston Center
Wed 12:49:26 PM 31.0456 -99.2161 108° East 464 534 26,100 -1,935 Descending Houston Center
Wed 12:50:28 PM 31.0064 -99.0772 108° East 450 518 24,200 -2,129 Descending Houston Center
Wed 12:51:30 PM 30.9686 -98.9389 108° East 444 511 21,700 -2,855 Descending Houston Center
Wed 12:52:32 PM 30.9300 -98.8086 109° East 426 490 18,300 -3,387 Descending Houston Center
Wed 12:53:34 PM 30.8972 -98.6858 107° East 398 458 14,700 -2,661 Descending Houston Center
Wed 12:54:36 PM 30.8556 -98.5481 109° East 386 444 12,800 -1,597 Descending Houston Center
Wed 12:55:38 PM 30.8231 -98.4292 108° East 381 438 11,400 -1,355 Descending Houston Center
Wed 12:56:40 PM 30.7878 -98.3075 109° East 391 450 10,000 -677 Descending Houston Center
Wed 12:57:42 PM 30.7531 -98.1897 109° East 386 444 10,000 -48 Level Houston Center
Wed 12:58:44 PM 30.7183 -98.0722 109° East 381 438 9,900 -726 Descending Houston Center
Wed 12:59:46 PM 30.6633 -97.9858 126° Southeast 335 386 8,500 -1,355 Descending Houston Center
Wed 01:00:48 PM 30.6067 -97.9156 133° Southeast 306 352 7,100 -1,500 Descending Houston Center
Wed 01:01:50 PM 30.5425 -97.8414 135° Southeast 284 327 5,400 -1,500 Descending Houston Center
Wed 01:02:52 PM 30.4911 -97.7833 136° Southeast 265 305 4,000 -1,220 Descending Houston Center
Wed 01:03:53 PM 30.4297 -97.7433 151° Southeast 255 293 2,900 -634 Descending Houston Center
Wed 01:04:55 PM 30.3778 -97.7081 150° Southeast 236 272 2,700 -242 Descending Houston Center
Wed 01:05:57 PM 30.3325 -97.6772 150° Southeast 210 242 2,400 -339 Descending Houston Center
Wed 01:06:59 PM 30.2814 -97.6606 164° South 196 226 2,000 -532 Descending Houston Center
Wed 01:08:01 PM 30.2328 -97.6569 176° South 183 211 1,300 -532 Descending Houston Center
Wed 01:09:03 PM 30.1900 -97.6569 180° South 168 193 900 -387 Descending Houston Center
Wed 01:11:00 PM 30.1833 -97.6667 221° Southwest  Level FlightAware Approximate

Login

Don't have an account? Register now (free) for customized features, flight alerts, and more!